Tindal Airport
YPTN : now visible

Airfield :











YOU CAN JOIN US ON...

 
LOGIN :

Register | Disclaimer

   EN    FR    IT 

 









Legend :    VFR   Marginal VFR   IFR   Intensive IFR   Very Intensive IFR
Visi :
Ceiling :
>= 8 km
>= 3000ft
5 to 8 km
1000 to 3000 ft
1500m to 5 km
500 to 1000 ft
800 to 1500m
200 to 500 ft
< 800m
< 200 ft
Symbols :   Thunderstorms  Fog  Heavy snow  Heavy precipitations  Wind > 20 kt






- Airport Elevation : 443 ft
- IATA code : KTR


YPTN - Tindal

CURRENT METAR :
  • 110500Z AUTO 31004KT 260V320 9999 // SCT095 39/13 Q1006

EXPIRED METARs :
  • 110430Z AUTO 31005KT 230V030 9999 // NCD 39/14 Q1006
  • 110400Z AUTO 36007KT 330V030 9999 // SCT091 38/14 Q1007
  • 110330Z AUTO 28005G15KT 210V340 9999 // NCD 39/15 Q1007
  • 110300Z AUTO 21004KT 9999 // NCD 38/15 Q1008
  • 110230Z AUTO 28004KT 190V340 9999 // NCD 37/15 Q1009

TAF TAF YPTN
Valid from the 11 at 00:00 until the 12 at 00:00 UTC


102311Z 1100/1200 33006KT CAVOK
FM110200 10010KT CAVOK
FM111400 34008KT CAVOK



MET'MAP, your aeronautical weather chart ! - Copyright ORBIFLY December 2007 - Disclaimer

ORBIFLY MET'MAP TEAM :

Programming & Development : Alexandra Zaïnal
Concept & original design : Baudouin d'Aumeries
Assistance for programming : Marc-Olivier Méhu
Technical & hardware support : Manuel Goepfert

Contact : metmap@orbifly.com




SOURCES & CREDITS :

   NOAA       Earth
Advisory